createdAt,value
2018-08-16T00:02:51.517Z,14
2018-08-16T00:07:53.834Z,14
2018-08-16T00:12:56.230Z,13.9
2018-08-16T00:17:58.641Z,13.8
2018-08-16T00:23:01.125Z,13.7
2018-08-16T00:28:03.734Z,13.5
2018-08-16T00:33:06.047Z,13.4
2018-08-16T00:38:08.813Z,13.4
2018-08-16T00:43:10.930Z,13.3
2018-08-16T00:48:13.434Z,13.3
2018-08-16T00:53:16.033Z,13.1
2018-08-16T00:58:18.311Z,13.1
2018-08-16T01:03:20.779Z,13.1
2018-08-16T01:08:23.265Z,13.2
2018-08-16T01:13:25.826Z,13.1
2018-08-16T01:18:28.325Z,13
2018-08-16T01:23:30.619Z,13
2018-08-16T01:28:33.102Z,12.9
2018-08-16T01:33:35.549Z,12.9
2018-08-16T01:38:37.996Z,12.9
2018-08-16T01:43:40.496Z,12.9
2018-08-16T01:48:42.883Z,12.8
2018-08-16T01:53:45.414Z,12.7
2018-08-16T01:58:47.851Z,12.7
2018-08-16T02:03:50.600Z,12.7
2018-08-16T02:08:52.720Z,12.6
2018-08-16T02:13:55.221Z,12.6
2018-08-16T02:18:57.721Z,12.6
2018-08-16T02:24:00.104Z,12.5
2018-08-16T02:29:03.264Z,12.5
2018-08-16T02:34:05.026Z,12.5
2018-08-16T02:39:07.518Z,12.5
2018-08-16T02:44:10.212Z,12.5
2018-08-16T02:49:12.458Z,12.5
2018-08-16T02:54:14.853Z,12.4
2018-08-16T02:59:17.315Z,12.4
2018-08-16T03:04:19.938Z,12.3
2018-08-16T03:09:22.234Z,12.3
2018-08-16T03:14:26.001Z,12.2
2018-08-16T03:19:27.156Z,12.2
2018-08-16T03:24:29.820Z,12.2
2018-08-16T03:29:32.051Z,12.1
2018-08-16T03:34:34.512Z,12.1
2018-08-16T03:39:36.965Z,12
2018-08-16T03:44:39.621Z,12
2018-08-16T03:49:41.896Z,12
2018-08-16T03:54:44.725Z,11.9
2018-08-16T03:59:46.865Z,11.8
2018-08-16T04:04:49.272Z,11.9
2018-08-16T04:09:51.725Z,11.9
2018-08-16T04:14:54.515Z,11.9
2018-08-16T04:19:56.628Z,12
2018-08-16T04:24:59.163Z,12.1
2018-08-16T04:30:01.577Z,12.2
2018-08-16T04:35:04.046Z,12.3
2018-08-16T04:40:06.563Z,12.5
2018-08-16T04:45:09.052Z,12.6
2018-08-16T04:50:11.420Z,12.9
2018-08-16T04:55:13.857Z,13.2
2018-08-16T05:00:16.366Z,13.4
2018-08-16T05:05:18.783Z,13.7
2018-08-16T05:10:21.436Z,14.1
2018-08-16T05:15:23.719Z,14.6
2018-08-16T05:20:26.280Z,16
2018-08-16T05:25:28.585Z,18.9
2018-08-16T05:30:31.036Z,21.8
2018-08-16T05:35:33.586Z,24.4
2018-08-16T05:40:35.965Z,26.5
2018-08-16T05:45:38.428Z,28.3
2018-08-16T05:50:40.983Z,29.7
2018-08-16T05:55:43.376Z,30.8
2018-08-16T06:00:45.796Z,31.9
2018-08-16T06:05:48.522Z,33
2018-08-16T06:10:50.725Z,34.1
2018-08-16T06:15:53.189Z,35
2018-08-16T06:20:55.655Z,35.4
2018-08-16T06:25:58.254Z,34.8
2018-08-16T06:31:00.894Z,35.1
2018-08-16T06:36:03.217Z,35.8
2018-08-16T06:41:05.497Z,36.2
2018-08-16T06:46:08.172Z,36.9
2018-08-16T06:51:10.458Z,37.3
2018-08-16T06:56:12.878Z,37.8
2018-08-16T07:01:15.458Z,38.8
2018-08-16T07:06:17.803Z,39.6
2018-08-16T07:11:20.249Z,39.8
2018-08-16T07:16:22.843Z,40.4
2018-08-16T07:21:26.404Z,41
2018-08-16T07:26:27.630Z,41.2
2018-08-16T07:31:30.122Z,41.1
2018-08-16T07:36:32.575Z,39.3
2018-08-16T07:41:35.027Z,38.9
2018-08-16T07:46:37.518Z,39.5
2018-08-16T07:51:40.293Z,39.6
2018-08-16T07:56:42.415Z,39.7
2018-08-16T08:06:47.431Z,39.8
2018-08-16T08:11:49.806Z,36.5
2018-08-16T08:21:54.685Z,33.2
2018-08-16T08:26:57.205Z,34.2
2018-08-16T08:37:02.244Z,33.4
2018-08-16T08:42:04.620Z,32.1
2018-08-16T08:47:07.279Z,33.8
2018-08-16T08:52:09.577Z,34.3
2018-08-16T08:57:11.916Z,35.7
2018-08-16T09:02:14.608Z,36.5
2018-08-16T09:07:16.915Z,36.7
2018-08-16T09:12:19.333Z,37.8
2018-08-16T09:17:21.776Z,36.3
2018-08-16T09:22:24.333Z,34
2018-08-16T09:27:26.675Z,32
2018-08-16T09:32:29.405Z,30.4
2018-08-16T09:37:31.596Z,29.2
2018-08-16T09:42:34.239Z,28.5
2018-08-16T09:47:36.693Z,28.1
2018-08-16T09:52:38.976Z,27.9
2018-08-16T09:57:41.466Z,27.8
2018-08-16T10:02:44.066Z,27.8
2018-08-16T10:07:46.445Z,27.9
2018-08-16T10:12:48.953Z,28
2018-08-16T10:17:51.367Z,27.9
2018-08-16T10:22:53.803Z,27.8
2018-08-16T10:27:56.255Z,27.6
2018-08-16T10:32:58.652Z,27.6
2018-08-16T10:38:01.191Z,27.8
2018-08-16T10:43:03.571Z,27.9
2018-08-16T10:48:06.023Z,27.9
2018-08-16T10:53:08.514Z,27.6
2018-08-16T10:58:10.981Z,27.2
2018-08-16T11:08:16.095Z,26.5
2018-08-16T11:13:18.318Z,26.5
2018-08-16T11:18:20.787Z,26.8
2018-08-16T11:23:23.791Z,27.1
2018-08-16T11:28:26.300Z,27.3
2018-08-16T11:33:28.826Z,27.3
2018-08-16T11:38:30.726Z,27.2
2018-08-16T11:43:33.756Z,27.3
2018-08-16T11:48:35.591Z,27.3
2018-08-16T11:53:38.008Z,27.4
2018-08-16T11:58:40.770Z,27.4
2018-08-16T12:03:42.918Z,27.3
2018-08-16T12:08:45.552Z,27
2018-08-16T12:13:48.081Z,26.8
2018-08-16T12:18:50.469Z,26.9
2018-08-16T12:23:52.744Z,27.3
2018-08-16T12:28:55.454Z,27.7
2018-08-16T12:33:57.760Z,27.8
2018-08-16T12:39:00.281Z,27.7
2018-08-16T12:44:02.744Z,27.7
2018-08-16T12:49:05.045Z,27.8
2018-08-16T12:54:07.899Z,28.1
2018-08-16T12:59:10.213Z,28.2
2018-08-16T13:04:12.705Z,28
2018-08-16T13:09:19.265Z,27.9
2018-08-16T13:14:17.595Z,28
2018-08-16T13:19:50.906Z,28
2018-08-16T13:29:24.718Z,28
2018-08-16T13:39:29.907Z,28
2018-08-16T13:44:32.496Z,28.2
2018-08-16T13:49:34.665Z,28.1
2018-08-16T13:59:39.595Z,28.7
2018-08-16T14:04:48.941Z,28.9
2018-08-16T14:09:44.714Z,28.8
2018-08-16T14:14:46.902Z,28.8
2018-08-16T14:19:49.561Z,28.8
2018-08-16T14:24:53.580Z,28.9
2018-08-16T14:30:01.368Z,28.9
2018-08-16T14:34:56.759Z,28.7
2018-08-16T14:40:00.099Z,28.5
2018-08-16T14:45:08.592Z,28.6
2018-08-16T14:50:33.967Z,28.8
2018-08-16T14:55:45.550Z,29
2018-08-16T15:00:09.049Z,29.1
2018-08-16T15:05:11.585Z,28.9
2018-08-16T15:10:14.372Z,28.6
2018-08-16T15:15:17.407Z,28.4
2018-08-16T15:20:18.850Z,28.6
2018-08-16T15:25:21.377Z,28.7
2018-08-16T15:30:23.995Z,28.7
2018-08-16T15:35:26.338Z,28.6
2018-08-16T15:40:29.089Z,28.3
2018-08-16T15:45:31.210Z,28.1
2018-08-16T15:50:33.639Z,28.1
2018-08-16T15:55:36.232Z,28.2
2018-08-16T16:00:38.568Z,27.9
2018-08-16T16:05:45.256Z,27.8
2018-08-16T16:10:43.709Z,27.9
2018-08-16T18:58:50.758Z,22.5
2018-08-16T19:03:52.966Z,22.1
2018-08-16T19:08:55.578Z,21.8
2018-08-16T19:13:57.927Z,21.5
2018-08-16T19:19:01.103Z,21.3
2018-08-16T19:24:03.164Z,21.1
2018-08-16T19:29:05.564Z,20.9
2018-08-16T19:34:07.741Z,20.8
2018-08-16T19:44:12.669Z,20.4
2018-08-16T19:49:15.397Z,20.3
2018-08-16T19:54:17.633Z,20.1
2018-08-16T19:59:20.050Z,20
2018-08-16T20:04:26.263Z,19.9
2018-08-16T20:09:25.244Z,19.8
2018-08-16T20:14:27.654Z,19.7
2018-08-16T20:19:30.072Z,19.6
2018-08-16T20:24:32.411Z,19.5
2018-08-16T20:29:34.772Z,19.4
2018-08-16T20:34:37.391Z,19.5
2018-08-16T20:39:39.808Z,19.5
2018-08-16T20:44:42.144Z,19.4
2018-08-16T20:49:44.787Z,19.3
2018-08-16T20:54:47.050Z,19.2
2018-08-16T20:59:54.021Z,19.1
2018-08-16T21:04:52.223Z,19
2018-08-16T21:09:54.429Z,18.9
2018-08-16T21:14:57.044Z,18.8
2018-08-16T21:19:59.532Z,18.8
2018-08-16T21:25:01.908Z,18.8
2018-08-16T21:30:04.301Z,19
2018-08-16T21:35:06.727Z,19.3
2018-08-16T21:40:09.199Z,19.6
2018-08-16T21:45:11.638Z,19.9
2018-08-16T21:50:14.169Z,20
2018-08-16T21:55:16.570Z,20.2
2018-08-16T22:00:19.073Z,20.3
2018-08-16T22:05:21.681Z,20.4
2018-08-16T22:10:24.039Z,20.5
2018-08-16T22:15:26.409Z,20.6
2018-08-16T22:20:28.849Z,20.6
2018-08-16T22:25:31.377Z,20.7
2018-08-16T22:30:33.767Z,20.8
2018-08-16T22:35:36.241Z,20.7
2018-08-16T22:40:42.399Z,20.8
2018-08-16T22:45:41.129Z,20.7
2018-08-16T22:50:43.671Z,20.7
2018-08-16T22:55:46.220Z,20.5
2018-08-16T23:00:48.528Z,20.4
2018-08-16T23:05:50.969Z,20.2
2018-08-16T23:10:53.645Z,20.1
2018-08-16T23:15:55.959Z,19.9
2018-08-16T23:20:58.370Z,19.8
2018-08-16T23:26:00.947Z,19.7
2018-08-16T23:31:03.622Z,19.8
2018-08-16T23:36:05.773Z,19.7
2018-08-16T23:46:10.934Z,19.4
2018-08-16T23:51:13.137Z,19.2
